sensor_id;sensor_type;location;lat;lon;timestamp;P1;durP1;ratioP1;P2;durP2;ratioP2
64335;SDS011;50672;53.362;-6.240;2023-04-03T00:00:59;3.47;;;2.00;;
64335;SDS011;50672;53.362;-6.240;2023-04-03T00:03:26;3.20;;;1.40;;
64335;SDS011;50672;53.362;-6.240;2023-04-03T00:05:53;4.37;;;1.40;;
64335;SDS011;50672;53.362;-6.240;2023-04-03T00:08:21;2.60;;;1.20;;
64335;SDS011;50672;53.362;-6.240;2023-04-03T00:10:48;1.63;;;1.40;;
64335;SDS011;50672;53.362;-6.240;2023-04-03T00:13:15;2.50;;;1.00;;
64335;SDS011;50672;53.362;-6.240;2023-04-03T00:15:42;4.07;;;1.17;;
64335;SDS011;50672;53.362;-6.240;2023-04-03T00:18:10;3.17;;;1.70;;
64335;SDS011;50672;53.362;-6.240;2023-04-03T00:20:37;3.00;;;1.40;;
64335;SDS011;50672;53.362;-6.240;2023-04-03T00:23:04;2.93;;;1.17;;
64335;SDS011;50672;53.362;-6.240;2023-04-03T00:25:31;4.03;;;1.60;;
64335;SDS011;50672;53.362;-6.240;2023-04-03T00:27:58;2.43;;;1.97;;
64335;SDS011;50672;53.362;-6.240;2023-04-03T00:30:24;4.23;;;1.63;;
64335;SDS011;50672;53.362;-6.240;2023-04-03T00:32:52;5.90;;;1.63;;
64335;SDS011;50672;53.362;-6.240;2023-04-03T00:35:20;5.03;;;2.83;;
64335;SDS011;50672;53.362;-6.240;2023-04-03T00:37:50;2.87;;;1.50;;
64335;SDS011;50672;53.362;-6.240;2023-04-03T00:40:18;4.37;;;1.90;;
64335;SDS011;50672;53.362;-6.240;2023-04-03T00:42:46;2.33;;;1.30;;
64335;SDS011;50672;53.362;-6.240;2023-04-03T00:47:44;3.30;;;1.37;;
64335;SDS011;50672;53.362;-6.240;2023-04-03T00:50:11;4.00;;;1.60;;
64335;SDS011;50672;53.362;-6.240;2023-04-03T00:52:38;3.30;;;1.17;;
64335;SDS011;50672;53.362;-6.240;2023-04-03T00:55:06;2.23;;;1.23;;
64335;SDS011;50672;53.362;-6.240;2023-04-03T00:57:35;2.53;;;1.00;;
64335;SDS011;50672;53.362;-6.240;2023-04-03T01:00:11;2.00;;;1.07;;
64335;SDS011;50672;53.362;-6.240;2023-04-03T01:02:41;1.80;;;0.80;;
64335;SDS011;50672;53.362;-6.240;2023-04-03T01:05:08;2.70;;;1.20;;
64335;SDS011;50672;53.362;-6.240;2023-04-03T01:07:35;2.63;;;1.27;;
64335;SDS011;50672;53.362;-6.240;2023-04-03T01:10:05;1.53;;;1.13;;
64335;SDS011;50672;53.362;-6.240;2023-04-03T01:12:35;3.37;;;1.67;;
64335;SDS011;50672;53.362;-6.240;2023-04-03T01:15:13;2.63;;;1.80;;
64335;SDS011;50672;53.362;-6.240;2023-04-03T01:17:50;4.47;;;1.63;;
64335;SDS011;50672;53.362;-6.240;2023-04-03T01:25:47;3.83;;;1.20;;
64335;SDS011;50672;53.362;-6.240;2023-04-03T01:30:59;5.10;;;2.07;;
64335;SDS011;50672;53.362;-6.240;2023-04-03T01:33:50;2.00;;;1.20;;
64335;SDS011;50672;53.362;-6.240;2023-04-03T01:36:19;2.50;;;1.00;;
64335;SDS011;50672;53.362;-6.240;2023-04-03T01:38:51;7.10;;;1.10;;
64335;SDS011;50672;53.362;-6.240;2023-04-03T01:41:19;3.77;;;1.30;;
64335;SDS011;50672;53.362;-6.240;2023-04-03T01:43:47;2.53;;;1.00;;
64335;SDS011;50672;53.362;-6.240;2023-04-03T01:46:18;3.07;;;1.20;;
64335;SDS011;50672;53.362;-6.240;2023-04-03T01:48:46;2.03;;;1.13;;
64335;SDS011;50672;53.362;-6.240;2023-04-03T01:51:13;2.90;;;1.00;;
64335;SDS011;50672;53.362;-6.240;2023-04-03T01:53:40;3.87;;;1.10;;
64335;SDS011;50672;53.362;-6.240;2023-04-03T01:56:07;2.60;;;1.13;;
64335;SDS011;50672;53.362;-6.240;2023-04-03T01:58:34;2.33;;;1.23;;
64335;SDS011;50672;53.362;-6.240;2023-04-03T02:01:01;1.63;;;1.23;;
64335;SDS011;50672;53.362;-6.240;2023-04-03T02:03:28;2.53;;;1.10;;
64335;SDS011;50672;53.362;-6.240;2023-04-03T02:05:55;3.50;;;1.03;;
64335;SDS011;50672;53.362;-6.240;2023-04-03T02:08:22;4.07;;;1.60;;
64335;SDS011;50672;53.362;-6.240;2023-04-03T02:10:49;2.87;;;1.10;;
64335;SDS011;50672;53.362;-6.240;2023-04-03T02:13:17;2.33;;;1.20;;
64335;SDS011;50672;53.362;-6.240;2023-04-03T02:15:44;1.63;;;1.10;;
64335;SDS011;50672;53.362;-6.240;2023-04-03T02:18:11;2.30;;;0.90;;
64335;SDS011;50672;53.362;-6.240;2023-04-03T02:20:38;2.37;;;1.20;;
64335;SDS011;50672;53.362;-6.240;2023-04-03T02:23:05;2.07;;;1.00;;
64335;SDS011;50672;53.362;-6.240;2023-04-03T02:25:33;3.93;;;1.27;;
64335;SDS011;50672;53.362;-6.240;2023-04-03T02:28:03;2.37;;;0.87;;
64335;SDS011;50672;53.362;-6.240;2023-04-03T02:30:30;3.77;;;1.07;;
64335;SDS011;50672;53.362;-6.240;2023-04-03T02:32:57;1.67;;;1.00;;
64335;SDS011;50672;53.362;-6.240;2023-04-03T02:35:24;2.93;;;1.10;;
64335;SDS011;50672;53.362;-6.240;2023-04-03T02:37:51;1.93;;;1.10;;
64335;SDS011;50672;53.362;-6.240;2023-04-03T02:40:18;2.87;;;0.90;;
64335;SDS011;50672;53.362;-6.240;2023-04-03T02:42:45;2.40;;;1.20;;
64335;SDS011;50672;53.362;-6.240;2023-04-03T02:45:11;3.47;;;1.60;;
64335;SDS011;50672;53.362;-6.240;2023-04-03T02:47:38;2.23;;;1.50;;
64335;SDS011;50672;53.362;-6.240;2023-04-03T02:50:05;4.50;;;1.67;;
64335;SDS011;50672;53.362;-6.240;2023-04-03T02:52:32;5.83;;;1.40;;
64335;SDS011;50672;53.362;-6.240;2023-04-03T02:54:59;2.83;;;1.30;;
64335;SDS011;50672;53.362;-6.240;2023-04-03T02:57:25;3.03;;;1.40;;
64335;SDS011;50672;53.362;-6.240;2023-04-03T02:59:52;3.97;;;1.87;;
64335;SDS011;50672;53.362;-6.240;2023-04-03T03:02:19;4.17;;;2.03;;
64335;SDS011;50672;53.362;-6.240;2023-04-03T03:04:46;6.97;;;2.50;;
64335;SDS011;50672;53.362;-6.240;2023-04-03T03:07:13;6.53;;;2.40;;
64335;SDS011;50672;53.362;-6.240;2023-04-03T03:09:40;3.97;;;2.10;;
64335;SDS011;50672;53.362;-6.240;2023-04-03T03:12:06;3.63;;;1.70;;
64335;SDS011;50672;53.362;-6.240;2023-04-03T03:14:33;7.63;;;1.53;;
64335;SDS011;50672;53.362;-6.240;2023-04-03T03:17:00;4.77;;;1.57;;
64335;SDS011;50672;53.362;-6.240;2023-04-03T03:19:27;3.70;;;1.50;;
64335;SDS011;50672;53.362;-6.240;2023-04-03T03:21:53;3.47;;;1.40;;
64335;SDS011;50672;53.362;-6.240;2023-04-03T03:24:20;3.90;;;1.13;;
64335;SDS011;50672;53.362;-6.240;2023-04-03T03:26:47;4.30;;;1.80;;
64335;SDS011;50672;53.362;-6.240;2023-04-03T03:29:14;3.87;;;1.60;;
64335;SDS011;50672;53.362;-6.240;2023-04-03T03:31:41;3.57;;;1.67;;
64335;SDS011;50672;53.362;-6.240;2023-04-03T03:34:08;11.17;;;2.00;;
64335;SDS011;50672;53.362;-6.240;2023-04-03T03:36:35;5.73;;;1.60;;
64335;SDS011;50672;53.362;-6.240;2023-04-03T03:39:02;2.53;;;1.60;;
64335;SDS011;50672;53.362;-6.240;2023-04-03T03:41:29;4.43;;;1.87;;
64335;SDS011;50672;53.362;-6.240;2023-04-03T03:43:56;4.40;;;2.00;;
64335;SDS011;50672;53.362;-6.240;2023-04-03T03:46:23;5.03;;;2.40;;
64335;SDS011;50672;53.362;-6.240;2023-04-03T03:48:49;5.57;;;2.40;;
64335;SDS011;50672;53.362;-6.240;2023-04-03T03:51:16;4.00;;;1.80;;
64335;SDS011;50672;53.362;-6.240;2023-04-03T03:53:43;4.13;;;1.90;;
64335;SDS011;50672;53.362;-6.240;2023-04-03T03:56:10;7.13;;;2.00;;
64335;SDS011;50672;53.362;-6.240;2023-04-03T03:58:37;5.93;;;1.87;;
64335;SDS011;50672;53.362;-6.240;2023-04-03T04:01:04;4.70;;;1.90;;
64335;SDS011;50672;53.362;-6.240;2023-04-03T04:03:32;4.37;;;2.13;;
64335;SDS011;50672;53.362;-6.240;2023-04-03T04:05:59;5.70;;;2.30;;
64335;SDS011;50672;53.362;-6.240;2023-04-03T04:08:28;7.30;;;2.47;;
64335;SDS011;50672;53.362;-6.240;2023-04-03T04:10:54;5.30;;;2.40;;
64335;SDS011;50672;53.362;-6.240;2023-04-03T04:13:21;3.63;;;1.97;;
64335;SDS011;50672;53.362;-6.240;2023-04-03T04:15:48;4.97;;;2.50;;
64335;SDS011;50672;53.362;-6.240;2023-04-03T04:18:15;5.20;;;2.17;;
64335;SDS011;50672;53.362;-6.240;2023-04-03T04:20:41;5.57;;;2.10;;
64335;SDS011;50672;53.362;-6.240;2023-04-03T04:23:08;4.83;;;1.83;;
64335;SDS011;50672;53.362;-6.240;2023-04-03T04:25:35;3.87;;;2.33;;
64335;SDS011;50672;53.362;-6.240;2023-04-03T04:28:03;5.30;;;2.30;;
64335;SDS011;50672;53.362;-6.240;2023-04-03T04:30:30;5.37;;;2.23;;
64335;SDS011;50672;53.362;-6.240;2023-04-03T04:32:56;6.53;;;2.40;;
64335;SDS011;50672;53.362;-6.240;2023-04-03T04:35:23;2.70;;;2.17;;
64335;SDS011;50672;53.362;-6.240;2023-04-03T04:37:50;4.50;;;2.27;;
64335;SDS011;50672;53.362;-6.240;2023-04-03T04:40:17;6.13;;;2.10;;
64335;SDS011;50672;53.362;-6.240;2023-04-03T04:42:44;4.07;;;2.33;;
64335;SDS011;50672;53.362;-6.240;2023-04-03T04:45:11;4.67;;;2.30;;
64335;SDS011;50672;53.362;-6.240;2023-04-03T04:47:37;4.97;;;2.60;;
64335;SDS011;50672;53.362;-6.240;2023-04-03T04:50:04;4.77;;;2.93;;
64335;SDS011;50672;53.362;-6.240;2023-04-03T04:52:32;6.60;;;3.17;;
64335;SDS011;50672;53.362;-6.240;2023-04-03T04:54:58;5.70;;;3.30;;
64335;SDS011;50672;53.362;-6.240;2023-04-03T04:57:26;7.47;;;4.10;;
64335;SDS011;50672;53.362;-6.240;2023-04-03T04:59:53;5.23;;;3.23;;
64335;SDS011;50672;53.362;-6.240;2023-04-03T05:02:19;5.10;;;2.77;;
64335;SDS011;50672;53.362;-6.240;2023-04-03T05:04:46;4.53;;;2.83;;
64335;SDS011;50672;53.362;-6.240;2023-04-03T05:07:13;4.83;;;2.90;;
64335;SDS011;50672;53.362;-6.240;2023-04-03T05:09:39;5.93;;;3.53;;
64335;SDS011;50672;53.362;-6.240;2023-04-03T05:12:08;4.27;;;3.20;;
64335;SDS011;50672;53.362;-6.240;2023-04-03T05:14:35;5.13;;;3.07;;
64335;SDS011;50672;53.362;-6.240;2023-04-03T05:17:01;6.37;;;3.37;;
64335;SDS011;50672;53.362;-6.240;2023-04-03T05:19:28;4.10;;;3.03;;
64335;SDS011;50672;53.362;-6.240;2023-04-03T05:21:55;6.60;;;3.07;;
64335;SDS011;50672;53.362;-6.240;2023-04-03T05:24:22;7.53;;;3.80;;
64335;SDS011;50672;53.362;-6.240;2023-04-03T05:26:48;3.80;;;2.80;;
64335;SDS011;50672;53.362;-6.240;2023-04-03T05:29:15;5.00;;;3.07;;
64335;SDS011;50672;53.362;-6.240;2023-04-03T05:31:42;6.23;;;2.97;;
64335;SDS011;50672;53.362;-6.240;2023-04-03T05:34:09;7.07;;;3.07;;
64335;SDS011;50672;53.362;-6.240;2023-04-03T05:36:36;4.17;;;3.00;;
64335;SDS011;50672;53.362;-6.240;2023-04-03T05:39:03;6.23;;;2.80;;
64335;SDS011;50672;53.362;-6.240;2023-04-03T05:41:30;7.77;;;3.30;;
64335;SDS011;50672;53.362;-6.240;2023-04-03T05:43:57;5.70;;;2.87;;
64335;SDS011;50672;53.362;-6.240;2023-04-03T05:46:24;6.93;;;3.10;;
64335;SDS011;50672;53.362;-6.240;2023-04-03T05:48:50;6.60;;;3.13;;
64335;SDS011;50672;53.362;-6.240;2023-04-03T05:51:19;6.53;;;3.33;;
64335;SDS011;50672;53.362;-6.240;2023-04-03T05:53:48;5.07;;;3.20;;
64335;SDS011;50672;53.362;-6.240;2023-04-03T05:56:18;7.87;;;3.50;;
64335;SDS011;50672;53.362;-6.240;2023-04-03T05:58:46;5.93;;;3.00;;
64335;SDS011;50672;53.362;-6.240;2023-04-03T06:01:13;8.00;;;3.80;;
64335;SDS011;50672;53.362;-6.240;2023-04-03T06:03:41;8.43;;;4.00;;
64335;SDS011;50672;53.362;-6.240;2023-04-03T06:06:10;8.07;;;3.87;;
64335;SDS011;50672;53.362;-6.240;2023-04-03T06:08:40;10.67;;;4.63;;
64335;SDS011;50672;53.362;-6.240;2023-04-03T06:11:07;12.53;;;4.70;;
64335;SDS011;50672;53.362;-6.240;2023-04-03T06:13:34;10.77;;;4.63;;
64335;SDS011;50672;53.362;-6.240;2023-04-03T06:16:01;12.70;;;5.40;;
64335;SDS011;50672;53.362;-6.240;2023-04-03T06:18:28;15.23;;;5.77;;
64335;SDS011;50672;53.362;-6.240;2023-04-03T06:20:56;8.63;;;5.17;;
64335;SDS011;50672;53.362;-6.240;2023-04-03T06:23:24;17.87;;;5.80;;
64335;SDS011;50672;53.362;-6.240;2023-04-03T06:25:51;14.03;;;5.97;;
64335;SDS011;50672;53.362;-6.240;2023-04-03T06:28:18;13.07;;;6.03;;
64335;SDS011;50672;53.362;-6.240;2023-04-03T06:30:45;14.77;;;5.53;;
64335;SDS011;50672;53.362;-6.240;2023-04-03T06:33:12;14.57;;;4.80;;
64335;SDS011;50672;53.362;-6.240;2023-04-03T06:35:39;17.13;;;7.03;;
64335;SDS011;50672;53.362;-6.240;2023-04-03T06:38:07;10.87;;;5.80;;
64335;SDS011;50672;53.362;-6.240;2023-04-03T06:40:35;11.40;;;4.90;;
64335;SDS011;50672;53.362;-6.240;2023-04-03T06:43:03;13.60;;;5.60;;
64335;SDS011;50672;53.362;-6.240;2023-04-03T06:45:30;10.93;;;5.20;;
64335;SDS011;50672;53.362;-6.240;2023-04-03T06:47:57;13.13;;;5.50;;
64335;SDS011;50672;53.362;-6.240;2023-04-03T06:50:24;15.33;;;6.03;;
64335;SDS011;50672;53.362;-6.240;2023-04-03T06:52:51;12.97;;;4.90;;
64335;SDS011;50672;53.362;-6.240;2023-04-03T06:55:18;12.80;;;4.70;;
64335;SDS011;50672;53.362;-6.240;2023-04-03T06:57:45;10.67;;;4.50;;
64335;SDS011;50672;53.362;-6.240;2023-04-03T07:00:12;11.37;;;4.07;;
64335;SDS011;50672;53.362;-6.240;2023-04-03T07:02:39;12.60;;;5.20;;
64335;SDS011;50672;53.362;-6.240;2023-04-03T07:05:07;9.77;;;4.37;;
64335;SDS011;50672;53.362;-6.240;2023-04-03T07:07:34;10.40;;;4.30;;
64335;SDS011;50672;53.362;-6.240;2023-04-03T07:10:01;8.10;;;4.63;;
64335;SDS011;50672;53.362;-6.240;2023-04-03T07:12:28;13.57;;;4.90;;
64335;SDS011;50672;53.362;-6.240;2023-04-03T07:14:55;16.30;;;4.87;;
64335;SDS011;50672;53.362;-6.240;2023-04-03T07:17:22;10.77;;;4.10;;
64335;SDS011;50672;53.362;-6.240;2023-04-03T07:19:48;10.53;;;4.37;;
64335;SDS011;50672;53.362;-6.240;2023-04-03T07:22:15;11.87;;;4.17;;
64335;SDS011;50672;53.362;-6.240;2023-04-03T07:24:42;13.87;;;4.53;;
64335;SDS011;50672;53.362;-6.240;2023-04-03T07:27:09;11.97;;;4.30;;
64335;SDS011;50672;53.362;-6.240;2023-04-03T07:29:39;13.47;;;4.70;;
64335;SDS011;50672;53.362;-6.240;2023-04-03T07:32:06;14.87;;;3.97;;
64335;SDS011;50672;53.362;-6.240;2023-04-03T07:34:33;18.30;;;4.53;;
64335;SDS011;50672;53.362;-6.240;2023-04-03T07:37:00;13.57;;;4.80;;
64335;SDS011;50672;53.362;-6.240;2023-04-03T07:39:27;10.80;;;3.60;;
64335;SDS011;50672;53.362;-6.240;2023-04-03T07:41:54;11.37;;;3.73;;
64335;SDS011;50672;53.362;-6.240;2023-04-03T07:44:24;12.97;;;3.90;;
64335;SDS011;50672;53.362;-6.240;2023-04-03T07:46:51;14.10;;;4.10;;
64335;SDS011;50672;53.362;-6.240;2023-04-03T07:49:18;18.20;;;3.33;;
64335;SDS011;50672;53.362;-6.240;2023-04-03T07:51:45;15.53;;;3.10;;
64335;SDS011;50672;53.362;-6.240;2023-04-03T07:54:11;7.27;;;2.40;;
64335;SDS011;50672;53.362;-6.240;2023-04-03T07:56:38;9.37;;;2.83;;
64335;SDS011;50672;53.362;-6.240;2023-04-03T07:59:05;9.50;;;3.00;;
64335;SDS011;50672;53.362;-6.240;2023-04-03T08:01:32;8.27;;;3.23;;
64335;SDS011;50672;53.362;-6.240;2023-04-03T08:04:00;10.43;;;2.43;;
64335;SDS011;50672;53.362;-6.240;2023-04-03T08:06:30;8.20;;;2.37;;
64335;SDS011;50672;53.362;-6.240;2023-04-03T08:09:11;9.90;;;3.17;;
64335;SDS011;50672;53.362;-6.240;2023-04-03T08:11:39;7.13;;;2.23;;
64335;SDS011;50672;53.362;-6.240;2023-04-03T08:14:06;13.47;;;2.60;;
64335;SDS011;50672;53.362;-6.240;2023-04-03T08:16:33;6.70;;;2.50;;
64335;SDS011;50672;53.362;-6.240;2023-04-03T08:19:00;12.17;;;3.27;;
64335;SDS011;50672;53.362;-6.240;2023-04-03T08:21:28;12.07;;;2.73;;
64335;SDS011;50672;53.362;-6.240;2023-04-03T08:23:55;12.90;;;2.87;;
64335;SDS011;50672;53.362;-6.240;2023-04-03T08:26:22;12.03;;;2.53;;
64335;SDS011;50672;53.362;-6.240;2023-04-03T08:28:49;14.60;;;3.83;;
64335;SDS011;50672;53.362;-6.240;2023-04-03T08:31:17;6.97;;;2.23;;
64335;SDS011;50672;53.362;-6.240;2023-04-03T08:33:45;7.23;;;2.40;;
64335;SDS011;50672;53.362;-6.240;2023-04-03T08:36:19;12.80;;;3.00;;
64335;SDS011;50672;53.362;-6.240;2023-04-03T08:38:52;8.37;;;3.07;;
64335;SDS011;50672;53.362;-6.240;2023-04-03T08:49:52;13.87;;;3.10;;
64335;SDS011;50672;53.362;-6.240;2023-04-03T08:55:02;11.17;;;3.00;;
64335;SDS011;50672;53.362;-6.240;2023-04-03T08:57:33;11.03;;;3.63;;
64335;SDS011;50672;53.362;-6.240;2023-04-03T09:00:07;10.37;;;3.93;;
64335;SDS011;50672;53.362;-6.240;2023-04-03T09:06:03;9.70;;;2.93;;
64335;SDS011;50672;53.362;-6.240;2023-04-03T09:08:18;12.53;;;3.47;;
64335;SDS011;50672;53.362;-6.240;2023-04-03T09:10:50;8.00;;;2.60;;
64335;SDS011;50672;53.362;-6.240;2023-04-03T09:13:41;10.90;;;2.87;;
64335;SDS011;50672;53.362;-6.240;2023-04-03T09:16:25;9.47;;;2.93;;
64335;SDS011;50672;53.362;-6.240;2023-04-03T09:19:00;8.10;;;2.43;;
64335;SDS011;50672;53.362;-6.240;2023-04-03T09:21:39;8.17;;;2.23;;
64335;SDS011;50672;53.362;-6.240;2023-04-03T09:24:13;11.97;;;3.37;;
64335;SDS011;50672;53.362;-6.240;2023-04-03T09:29:30;12.20;;;2.40;;
64335;SDS011;50672;53.362;-6.240;2023-04-03T09:32:00;7.73;;;2.90;;
64335;SDS011;50672;53.362;-6.240;2023-04-03T09:34:29;5.23;;;2.07;;
64335;SDS011;50672;53.362;-6.240;2023-04-03T09:37:00;6.60;;;2.27;;
64335;SDS011;50672;53.362;-6.240;2023-04-03T09:39:33;8.43;;;2.20;;
64335;SDS011;50672;53.362;-6.240;2023-04-03T09:47:52;8.87;;;2.20;;
64335;SDS011;50672;53.362;-6.240;2023-04-03T09:56:09;7.47;;;2.80;;
64335;SDS011;50672;53.362;-6.240;2023-04-03T09:58:51;12.60;;;2.60;;
64335;SDS011;50672;53.362;-6.240;2023-04-03T10:01:37;20.40;;;3.40;;
64335;SDS011;50672;53.362;-6.240;2023-04-03T10:04:10;11.60;;;2.83;;
64335;SDS011;50672;53.362;-6.240;2023-04-03T10:06:54;9.83;;;2.70;;
64335;SDS011;50672;53.362;-6.240;2023-04-03T10:09:26;12.80;;;3.07;;
64335;SDS011;50672;53.362;-6.240;2023-04-03T10:12:04;12.80;;;3.50;;
64335;SDS011;50672;53.362;-6.240;2023-04-03T10:20:09;11.90;;;2.53;;
64335;SDS011;50672;53.362;-6.240;2023-04-03T10:27:59;17.13;;;3.10;;
64335;SDS011;50672;53.362;-6.240;2023-04-03T10:33:05;10.70;;;2.87;;
64335;SDS011;50672;53.362;-6.240;2023-04-03T10:41:05;16.35;;;3.20;;
64335;SDS011;50672;53.362;-6.240;2023-04-03T10:43:44;8.83;;;2.90;;
64335;SDS011;50672;53.362;-6.240;2023-04-03T10:46:44;9.87;;;3.50;;
64335;SDS011;50672;53.362;-6.240;2023-04-03T10:52:10;12.03;;;3.37;;
64335;SDS011;50672;53.362;-6.240;2023-04-03T10:57:28;15.73;;;3.60;;
64335;SDS011;50672;53.362;-6.240;2023-04-03T10:59:58;11.47;;;3.50;;
64335;SDS011;50672;53.362;-6.240;2023-04-03T11:05:30;15.00;;;3.23;;
64335;SDS011;50672;53.362;-6.240;2023-04-03T11:08:04;15.07;;;3.80;;
64335;SDS011;50672;53.362;-6.240;2023-04-03T11:11:11;13.37;;;3.27;;
64335;SDS011;50672;53.362;-6.240;2023-04-03T11:14:36;14.67;;;3.73;;
64335;SDS011;50672;53.362;-6.240;2023-04-03T11:22:42;9.43;;;3.33;;
64335;SDS011;50672;53.362;-6.240;2023-04-03T11:27:40;15.30;;;3.63;;
64335;SDS011;50672;53.362;-6.240;2023-04-03T11:35:32;14.10;;;4.70;;
64335;SDS011;50672;53.362;-6.240;2023-04-03T11:38:01;13.37;;;4.17;;
64335;SDS011;50672;53.362;-6.240;2023-04-03T11:40:33;11.77;;;3.55;;
64335;SDS011;50672;53.362;-6.240;2023-04-03T11:43:04;13.73;;;3.43;;
64335;SDS011;50672;53.362;-6.240;2023-04-03T11:45:35;14.30;;;4.13;;
64335;SDS011;50672;53.362;-6.240;2023-04-03T11:50:50;15.17;;;3.30;;
64335;SDS011;50672;53.362;-6.240;2023-04-03T11:53:34;14.67;;;4.03;;
64335;SDS011;50672;53.362;-6.240;2023-04-03T11:56:03;19.67;;;4.07;;
64335;SDS011;50672;53.362;-6.240;2023-04-03T12:04:15;14.83;;;3.63;;
64335;SDS011;50672;53.362;-6.240;2023-04-03T12:12:28;13.07;;;3.50;;
64335;SDS011;50672;53.362;-6.240;2023-04-03T12:15:20;10.63;;;4.47;;
64335;SDS011;50672;53.362;-6.240;2023-04-03T12:17:49;13.43;;;3.10;;
64335;SDS011;50672;53.362;-6.240;2023-04-03T12:23:26;16.83;;;4.90;;
64335;SDS011;50672;53.362;-6.240;2023-04-03T12:26:02;13.68;;;3.28;;
64335;SDS011;50672;53.362;-6.240;2023-04-03T12:28:48;14.07;;;3.90;;
64335;SDS011;50672;53.362;-6.240;2023-04-03T12:31:19;14.23;;;3.10;;
64335;SDS011;50672;53.362;-6.240;2023-04-03T12:34:14;11.60;;;3.83;;
64335;SDS011;50672;53.362;-6.240;2023-04-03T12:40:08;17.98;;;5.07;;
64335;SDS011;50672;53.362;-6.240;2023-04-03T12:47:51;19.33;;;4.33;;
64335;SDS011;50672;53.362;-6.240;2023-04-03T12:52:59;17.23;;;4.63;;
64335;SDS011;50672;53.362;-6.240;2023-04-03T12:55:30;15.57;;;3.40;;
64335;SDS011;50672;53.362;-6.240;2023-04-03T12:57:57;15.63;;;5.10;;
64335;SDS011;50672;53.362;-6.240;2023-04-03T13:00:40;14.90;;;4.15;;
64335;SDS011;50672;53.362;-6.240;2023-04-03T13:03:14;18.53;;;3.67;;
64335;SDS011;50672;53.362;-6.240;2023-04-03T13:05:51;12.87;;;3.83;;
64335;SDS011;50672;53.362;-6.240;2023-04-03T13:08:19;10.77;;;3.70;;
64335;SDS011;50672;53.362;-6.240;2023-04-03T13:13:26;12.03;;;3.80;;
64335;SDS011;50672;53.362;-6.240;2023-04-03T13:15:53;14.20;;;3.70;;
64335;SDS011;50672;53.362;-6.240;2023-04-03T13:18:22;19.97;;;4.33;;
64335;SDS011;50672;53.362;-6.240;2023-04-03T13:20:59;14.40;;;4.20;;
64335;SDS011;50672;53.362;-6.240;2023-04-03T13:23:31;10.70;;;4.00;;
64335;SDS011;50672;53.362;-6.240;2023-04-03T13:26:00;20.20;;;4.23;;
64335;SDS011;50672;53.362;-6.240;2023-04-03T13:28:29;11.97;;;3.60;;
64335;SDS011;50672;53.362;-6.240;2023-04-03T13:31:05;16.70;;;4.73;;
64335;SDS011;50672;53.362;-6.240;2023-04-03T13:33:56;9.93;;;3.53;;
64335;SDS011;50672;53.362;-6.240;2023-04-03T13:36:29;14.10;;;4.33;;
64335;SDS011;50672;53.362;-6.240;2023-04-03T13:39:21;15.77;;;4.97;;
64335;SDS011;50672;53.362;-6.240;2023-04-03T13:41:54;15.43;;;4.57;;
64335;SDS011;50672;53.362;-6.240;2023-04-03T13:44:42;11.17;;;4.20;;
64335;SDS011;50672;53.362;-6.240;2023-04-03T13:50:12;12.13;;;4.70;;
64335;SDS011;50672;53.362;-6.240;2023-04-03T13:55:51;13.07;;;4.82;;
64335;SDS011;50672;53.362;-6.240;2023-04-03T13:58:25;9.35;;;4.70;;
64335;SDS011;50672;53.362;-6.240;2023-04-03T14:00:55;14.00;;;4.07;;
64335;SDS011;50672;53.362;-6.240;2023-04-03T14:06:13;12.63;;;5.55;;
64335;SDS011;50672;53.362;-6.240;2023-04-03T14:08:45;8.85;;;4.47;;
64335;SDS011;50672;53.362;-6.240;2023-04-03T14:11:18;13.52;;;4.30;;
64335;SDS011;50672;53.362;-6.240;2023-04-03T14:13:48;9.25;;;4.60;;
64335;SDS011;50672;53.362;-6.240;2023-04-03T14:16:18;13.90;;;4.35;;
64335;SDS011;50672;53.362;-6.240;2023-04-03T14:18:47;12.05;;;3.88;;
64335;SDS011;50672;53.362;-6.240;2023-04-03T14:21:16;10.88;;;4.25;;
64335;SDS011;50672;53.362;-6.240;2023-04-03T14:23:45;11.00;;;4.63;;
64335;SDS011;50672;53.362;-6.240;2023-04-03T14:26:16;14.25;;;4.78;;
64335;SDS011;50672;53.362;-6.240;2023-04-03T14:28:47;15.50;;;4.97;;
64335;SDS011;50672;53.362;-6.240;2023-04-03T14:31:19;8.77;;;4.57;;
64335;SDS011;50672;53.362;-6.240;2023-04-03T14:33:48;14.15;;;5.05;;
64335;SDS011;50672;53.362;-6.240;2023-04-03T14:36:15;11.27;;;4.88;;
64335;SDS011;50672;53.362;-6.240;2023-04-03T14:38:47;12.80;;;4.32;;
64335;SDS011;50672;53.362;-6.240;2023-04-03T14:41:16;11.65;;;3.42;;
64335;SDS011;50672;53.362;-6.240;2023-04-03T14:43:46;10.00;;;4.60;;
64335;SDS011;50672;53.362;-6.240;2023-04-03T14:46:15;14.07;;;5.72;;
64335;SDS011;50672;53.362;-6.240;2023-04-03T14:48:45;11.88;;;4.78;;
64335;SDS011;50672;53.362;-6.240;2023-04-03T14:51:12;12.95;;;4.47;;
64335;SDS011;50672;53.362;-6.240;2023-04-03T14:53:41;12.48;;;5.82;;
64335;SDS011;50672;53.362;-6.240;2023-04-03T14:56:17;9.75;;;5.10;;
64335;SDS011;50672;53.362;-6.240;2023-04-03T14:58:48;9.30;;;4.72;;
64335;SDS011;50672;53.362;-6.240;2023-04-03T15:01:19;13.77;;;5.75;;
64335;SDS011;50672;53.362;-6.240;2023-04-03T15:03:45;12.43;;;4.88;;
64335;SDS011;50672;53.362;-6.240;2023-04-03T15:06:13;13.13;;;7.40;;
64335;SDS011;50672;53.362;-6.240;2023-04-03T15:08:41;13.77;;;8.60;;
64335;SDS011;50672;53.362;-6.240;2023-04-03T15:11:10;12.68;;;7.70;;
64335;SDS011;50672;53.362;-6.240;2023-04-03T15:13:37;14.48;;;6.65;;
64335;SDS011;50672;53.362;-6.240;2023-04-03T15:16:05;9.05;;;4.15;;
64335;SDS011;50672;53.362;-6.240;2023-04-03T15:18:44;16.75;;;8.73;;
64335;SDS011;50672;53.362;-6.240;2023-04-03T15:21:12;13.57;;;8.15;;
64335;SDS011;50672;53.362;-6.240;2023-04-03T15:23:39;17.65;;;16.25;;
64335;SDS011;50672;53.362;-6.240;2023-04-03T15:26:06;17.42;;;15.45;;
64335;SDS011;50672;53.362;-6.240;2023-04-03T15:28:34;9.35;;;2.90;;
64335;SDS011;50672;53.362;-6.240;2023-04-03T15:31:03;14.90;;;13.50;;
64335;SDS011;50672;53.362;-6.240;2023-04-03T15:33:31;21.15;;;19.38;;
64335;SDS011;50672;53.362;-6.240;2023-04-03T15:35:59;47.55;;;44.67;;
64335;SDS011;50672;53.362;-6.240;2023-04-03T15:38:33;23.25;;;21.48;;
64335;SDS011;50672;53.362;-6.240;2023-04-03T15:41:00;17.38;;;15.65;;
64335;SDS011;50672;53.362;-6.240;2023-04-03T15:43:27;21.98;;;20.15;;
64335;SDS011;50672;53.362;-6.240;2023-04-03T15:45:56;32.30;;;30.10;;
64335;SDS011;50672;53.362;-6.240;2023-04-03T15:48:24;17.90;;;16.23;;
64335;SDS011;50672;53.362;-6.240;2023-04-03T15:50:52;19.42;;;17.92;;
64335;SDS011;50672;53.362;-6.240;2023-04-03T15:53:18;20.38;;;18.60;;
64335;SDS011;50672;53.362;-6.240;2023-04-03T15:55:45;23.80;;;22.00;;
64335;SDS011;50672;53.362;-6.240;2023-04-03T15:58:12;14.00;;;12.52;;
64335;SDS011;50672;53.362;-6.240;2023-04-03T16:00:39;13.45;;;12.18;;
64335;SDS011;50672;53.362;-6.240;2023-04-03T16:03:10;17.42;;;9.73;;
64335;SDS011;50672;53.362;-6.240;2023-04-03T16:05:41;14.98;;;10.82;;
64335;SDS011;50672;53.362;-6.240;2023-04-03T16:08:08;14.82;;;13.52;;
64335;SDS011;50672;53.362;-6.240;2023-04-03T16:10:36;18.73;;;12.23;;
64335;SDS011;50672;53.362;-6.240;2023-04-03T16:13:03;8.85;;;4.13;;
64335;SDS011;50672;53.362;-6.240;2023-04-03T16:15:31;11.23;;;3.75;;
64335;SDS011;50672;53.362;-6.240;2023-04-03T16:17:59;13.77;;;6.85;;
64335;SDS011;50672;53.362;-6.240;2023-04-03T16:20:27;11.55;;;3.90;;
64335;SDS011;50672;53.362;-6.240;2023-04-03T16:22:55;10.82;;;3.55;;
64335;SDS011;50672;53.362;-6.240;2023-04-03T16:25:24;15.23;;;4.53;;
64335;SDS011;50672;53.362;-6.240;2023-04-03T16:27:52;12.20;;;4.60;;
64335;SDS011;50672;53.362;-6.240;2023-04-03T16:30:19;11.52;;;4.25;;
64335;SDS011;50672;53.362;-6.240;2023-04-03T16:32:46;11.20;;;3.80;;
64335;SDS011;50672;53.362;-6.240;2023-04-03T16:35:13;11.20;;;4.13;;
64335;SDS011;50672;53.362;-6.240;2023-04-03T16:37:40;9.30;;;6.20;;
64335;SDS011;50672;53.362;-6.240;2023-04-03T16:40:07;10.73;;;6.70;;
64335;SDS011;50672;53.362;-6.240;2023-04-03T16:42:34;13.77;;;5.67;;